sensor_id;sensor_type;location;lat;lon;timestamp;P1;durP1;ratioP1;P2;durP2;ratioP2
75537;SDS011;64121;48.666;8.114;2023-02-28T00:01:03;5.78;;;3.42;;
75537;SDS011;64121;48.666;8.114;2023-02-28T00:03:28;8.75;;;3.35;;
75537;SDS011;64121;48.666;8.114;2023-02-28T00:05:54;4.80;;;3.03;;
75537;SDS011;64121;48.666;8.114;2023-02-28T00:08:20;6.05;;;3.13;;
75537;SDS011;64121;48.666;8.114;2023-02-28T00:10:46;4.82;;;2.63;;
75537;SDS011;64121;48.666;8.114;2023-02-28T00:13:11;4.13;;;2.55;;
75537;SDS011;64121;48.666;8.114;2023-02-28T00:15:36;4.40;;;2.55;;
75537;SDS011;64121;48.666;8.114;2023-02-28T00:18:02;4.07;;;2.40;;
75537;SDS011;64121;48.666;8.114;2023-02-28T00:20:27;4.47;;;2.67;;
75537;SDS011;64121;48.666;8.114;2023-02-28T00:22:53;3.60;;;2.22;;
75537;SDS011;64121;48.666;8.114;2023-02-28T00:25:20;4.70;;;2.80;;
75537;SDS011;64121;48.666;8.114;2023-02-28T00:27:47;3.13;;;2.45;;
75537;SDS011;64121;48.666;8.114;2023-02-28T00:30:14;5.03;;;3.30;;
75537;SDS011;64121;48.666;8.114;2023-02-28T00:32:40;3.75;;;2.35;;
75537;SDS011;64121;48.666;8.114;2023-02-28T00:35:06;4.28;;;2.78;;
75537;SDS011;64121;48.666;8.114;2023-02-28T00:37:33;3.78;;;2.60;;
75537;SDS011;64121;48.666;8.114;2023-02-28T00:39:59;4.05;;;2.40;;
75537;SDS011;64121;48.666;8.114;2023-02-28T00:42:26;5.93;;;2.33;;
75537;SDS011;64121;48.666;8.114;2023-02-28T00:44:51;5.22;;;2.78;;
75537;SDS011;64121;48.666;8.114;2023-02-28T00:47:17;4.90;;;2.90;;
75537;SDS011;64121;48.666;8.114;2023-02-28T00:49:42;4.28;;;2.45;;
75537;SDS011;64121;48.666;8.114;2023-02-28T00:52:07;4.40;;;2.90;;
75537;SDS011;64121;48.666;8.114;2023-02-28T00:54:33;4.85;;;2.42;;
75537;SDS011;64121;48.666;8.114;2023-02-28T00:56:58;3.90;;;2.60;;
75537;SDS011;64121;48.666;8.114;2023-02-28T00:59:25;5.72;;;2.70;;
75537;SDS011;64121;48.666;8.114;2023-02-28T01:01:51;4.55;;;2.97;;
75537;SDS011;64121;48.666;8.114;2023-02-28T01:04:16;4.30;;;2.42;;
75537;SDS011;64121;48.666;8.114;2023-02-28T01:06:42;4.03;;;3.08;;
75537;SDS011;64121;48.666;8.114;2023-02-28T01:09:07;4.07;;;2.80;;
75537;SDS011;64121;48.666;8.114;2023-02-28T01:11:33;3.80;;;2.67;;
75537;SDS011;64121;48.666;8.114;2023-02-28T01:13:59;4.40;;;3.10;;
75537;SDS011;64121;48.666;8.114;2023-02-28T01:16:26;6.05;;;2.63;;
75537;SDS011;64121;48.666;8.114;2023-02-28T01:18:52;4.63;;;3.00;;
75537;SDS011;64121;48.666;8.114;2023-02-28T01:21:18;4.40;;;2.58;;
75537;SDS011;64121;48.666;8.114;2023-02-28T01:23:45;5.28;;;2.80;;
75537;SDS011;64121;48.666;8.114;2023-02-28T01:26:12;4.10;;;2.60;;
75537;SDS011;64121;48.666;8.114;2023-02-28T01:28:39;4.35;;;2.47;;
75537;SDS011;64121;48.666;8.114;2023-02-28T01:31:05;4.70;;;2.80;;
75537;SDS011;64121;48.666;8.114;2023-02-28T01:33:32;5.07;;;2.95;;
75537;SDS011;64121;48.666;8.114;2023-02-28T01:35:58;4.82;;;2.97;;
75537;SDS011;64121;48.666;8.114;2023-02-28T01:38:23;4.13;;;3.08;;
75537;SDS011;64121;48.666;8.114;2023-02-28T01:40:49;5.22;;;3.05;;
75537;SDS011;64121;48.666;8.114;2023-02-28T01:43:18;5.25;;;3.35;;
75537;SDS011;64121;48.666;8.114;2023-02-28T01:45:46;5.00;;;2.58;;
75537;SDS011;64121;48.666;8.114;2023-02-28T01:48:12;4.47;;;3.13;;
75537;SDS011;64121;48.666;8.114;2023-02-28T01:50:39;5.63;;;3.28;;
75537;SDS011;64121;48.666;8.114;2023-02-28T01:53:09;5.10;;;3.35;;
75537;SDS011;64121;48.666;8.114;2023-02-28T01:55:38;5.82;;;2.95;;
75537;SDS011;64121;48.666;8.114;2023-02-28T01:58:05;4.28;;;2.85;;
75537;SDS011;64121;48.666;8.114;2023-02-28T02:00:32;5.30;;;3.22;;
75537;SDS011;64121;48.666;8.114;2023-02-28T02:02:58;7.00;;;3.88;;
75537;SDS011;64121;48.666;8.114;2023-02-28T02:05:27;4.43;;;3.20;;
75537;SDS011;64121;48.666;8.114;2023-02-28T02:07:56;7.28;;;2.88;;
75537;SDS011;64121;48.666;8.114;2023-02-28T02:10:24;4.47;;;2.85;;
75537;SDS011;64121;48.666;8.114;2023-02-28T02:12:58;5.75;;;3.50;;
75537;SDS011;64121;48.666;8.114;2023-02-28T02:15:31;4.00;;;2.53;;
75537;SDS011;64121;48.666;8.114;2023-02-28T02:18:02;6.35;;;3.38;;
75537;SDS011;64121;48.666;8.114;2023-02-28T02:20:56;6.22;;;3.42;;
75537;SDS011;64121;48.666;8.114;2023-02-28T02:24:03;4.30;;;2.95;;
75537;SDS011;64121;48.666;8.114;2023-02-28T02:27:03;5.22;;;3.10;;
75537;SDS011;64121;48.666;8.114;2023-02-28T02:29:55;4.22;;;2.90;;
75537;SDS011;64121;48.666;8.114;2023-02-28T02:32:39;3.45;;;2.55;;
75537;SDS011;64121;48.666;8.114;2023-02-28T02:35:25;4.75;;;3.30;;
75537;SDS011;64121;48.666;8.114;2023-02-28T02:37:57;7.28;;;3.25;;
75537;SDS011;64121;48.666;8.114;2023-02-28T02:40:27;4.40;;;3.15;;
75537;SDS011;64121;48.666;8.114;2023-02-28T02:42:59;5.45;;;3.15;;
75537;SDS011;64121;48.666;8.114;2023-02-28T02:45:30;4.88;;;3.80;;
75537;SDS011;64121;48.666;8.114;2023-02-28T02:47:59;6.35;;;3.38;;
75537;SDS011;64121;48.666;8.114;2023-02-28T02:50:29;6.00;;;3.38;;
75537;SDS011;64121;48.666;8.114;2023-02-28T02:55:26;4.93;;;2.88;;
75537;SDS011;64121;48.666;8.114;2023-02-28T02:57:53;5.53;;;3.45;;
75537;SDS011;64121;48.666;8.114;2023-02-28T03:00:23;5.38;;;3.40;;
75537;SDS011;64121;48.666;8.114;2023-02-28T03:02:52;7.47;;;3.50;;
75537;SDS011;64121;48.666;8.114;2023-02-28T03:05:21;6.60;;;3.47;;
75537;SDS011;64121;48.666;8.114;2023-02-28T03:07:51;4.57;;;3.38;;
75537;SDS011;64121;48.666;8.114;2023-02-28T03:10:30;5.97;;;3.35;;
75537;SDS011;64121;48.666;8.114;2023-02-28T03:13:29;4.07;;;2.90;;
75537;SDS011;64121;48.666;8.114;2023-02-28T03:16:12;6.00;;;3.80;;
75537;SDS011;64121;48.666;8.114;2023-02-28T03:18:53;4.18;;;3.00;;
75537;SDS011;64121;48.666;8.114;2023-02-28T03:21:25;5.87;;;3.33;;
75537;SDS011;64121;48.666;8.114;2023-02-28T03:23:59;5.32;;;3.08;;
75537;SDS011;64121;48.666;8.114;2023-02-28T03:26:29;4.75;;;3.40;;
75537;SDS011;64121;48.666;8.114;2023-02-28T03:29:01;4.55;;;3.30;;
75537;SDS011;64121;48.666;8.114;2023-02-28T03:31:30;3.78;;;2.67;;
75537;SDS011;64121;48.666;8.114;2023-02-28T03:34:01;5.80;;;3.53;;
75537;SDS011;64121;48.666;8.114;2023-02-28T03:36:32;5.70;;;3.35;;
75537;SDS011;64121;48.666;8.114;2023-02-28T03:39:05;4.60;;;3.15;;
75537;SDS011;64121;48.666;8.114;2023-02-28T03:41:35;6.18;;;3.78;;
75537;SDS011;64121;48.666;8.114;2023-02-28T03:44:04;6.30;;;3.45;;
75537;SDS011;64121;48.666;8.114;2023-02-28T03:46:35;5.82;;;3.78;;
75537;SDS011;64121;48.666;8.114;2023-02-28T03:49:05;6.43;;;3.15;;
75537;SDS011;64121;48.666;8.114;2023-02-28T03:51:37;9.43;;;3.47;;
75537;SDS011;64121;48.666;8.114;2023-02-28T03:54:08;5.57;;;3.30;;
75537;SDS011;64121;48.666;8.114;2023-02-28T03:56:37;5.30;;;3.10;;
75537;SDS011;64121;48.666;8.114;2023-02-28T03:59:04;5.57;;;3.50;;
75537;SDS011;64121;48.666;8.114;2023-02-28T04:01:36;5.43;;;3.38;;
75537;SDS011;64121;48.666;8.114;2023-02-28T04:04:04;6.35;;;3.30;;
75537;SDS011;64121;48.666;8.114;2023-02-28T04:06:30;6.75;;;3.83;;
75537;SDS011;64121;48.666;8.114;2023-02-28T04:08:57;5.38;;;3.65;;
75537;SDS011;64121;48.666;8.114;2023-02-28T04:11:27;6.28;;;3.15;;
75537;SDS011;64121;48.666;8.114;2023-02-28T04:13:57;7.25;;;3.88;;
75537;SDS011;64121;48.666;8.114;2023-02-28T04:16:23;6.15;;;3.75;;
75537;SDS011;64121;48.666;8.114;2023-02-28T04:18:48;6.28;;;3.60;;
75537;SDS011;64121;48.666;8.114;2023-02-28T04:21:14;4.63;;;3.42;;
75537;SDS011;64121;48.666;8.114;2023-02-28T04:23:39;5.50;;;3.63;;
75537;SDS011;64121;48.666;8.114;2023-02-28T04:26:04;5.35;;;3.78;;
75537;SDS011;64121;48.666;8.114;2023-02-28T04:28:31;5.63;;;3.47;;
75537;SDS011;64121;48.666;8.114;2023-02-28T04:30:56;5.45;;;4.20;;
75537;SDS011;64121;48.666;8.114;2023-02-28T04:33:23;6.72;;;4.22;;
75537;SDS011;64121;48.666;8.114;2023-02-28T04:35:57;5.18;;;3.63;;
75537;SDS011;64121;48.666;8.114;2023-02-28T04:38:23;5.03;;;3.53;;
75537;SDS011;64121;48.666;8.114;2023-02-28T04:40:48;5.07;;;3.80;;
75537;SDS011;64121;48.666;8.114;2023-02-28T04:43:13;7.57;;;4.13;;
75537;SDS011;64121;48.666;8.114;2023-02-28T04:45:40;5.28;;;3.50;;
75537;SDS011;64121;48.666;8.114;2023-02-28T04:48:05;8.18;;;4.10;;
75537;SDS011;64121;48.666;8.114;2023-02-28T04:50:31;5.82;;;4.32;;
75537;SDS011;64121;48.666;8.114;2023-02-28T04:52:56;10.55;;;4.97;;
75537;SDS011;64121;48.666;8.114;2023-02-28T04:55:21;7.28;;;4.10;;
75537;SDS011;64121;48.666;8.114;2023-02-28T04:57:47;6.35;;;3.97;;
75537;SDS011;64121;48.666;8.114;2023-02-28T05:00:12;17.15;;;11.02;;
75537;SDS011;64121;48.666;8.114;2023-02-28T05:02:39;16.77;;;9.23;;
75537;SDS011;64121;48.666;8.114;2023-02-28T05:05:05;11.07;;;7.35;;
75537;SDS011;64121;48.666;8.114;2023-02-28T05:07:30;8.73;;;5.55;;
75537;SDS011;64121;48.666;8.114;2023-02-28T05:09:56;7.90;;;4.72;;
75537;SDS011;64121;48.666;8.114;2023-02-28T05:12:21;7.95;;;5.10;;
75537;SDS011;64121;48.666;8.114;2023-02-28T05:14:46;8.52;;;5.35;;
75537;SDS011;64121;48.666;8.114;2023-02-28T05:17:12;7.97;;;4.75;;
75537;SDS011;64121;48.666;8.114;2023-02-28T05:19:38;6.20;;;4.35;;
75537;SDS011;64121;48.666;8.114;2023-02-28T05:22:04;6.90;;;4.75;;
75537;SDS011;64121;48.666;8.114;2023-02-28T05:24:29;8.63;;;5.85;;
75537;SDS011;64121;48.666;8.114;2023-02-28T05:26:55;8.80;;;5.82;;
75537;SDS011;64121;48.666;8.114;2023-02-28T05:29:20;7.32;;;4.88;;
75537;SDS011;64121;48.666;8.114;2023-02-28T05:31:46;10.57;;;6.50;;
75537;SDS011;64121;48.666;8.114;2023-02-28T05:34:11;8.45;;;6.45;;
75537;SDS011;64121;48.666;8.114;2023-02-28T05:36:38;14.70;;;7.80;;
75537;SDS011;64121;48.666;8.114;2023-02-28T05:39:04;7.07;;;4.68;;
75537;SDS011;64121;48.666;8.114;2023-02-28T05:41:30;7.63;;;4.55;;
75537;SDS011;64121;48.666;8.114;2023-02-28T05:43:57;7.63;;;5.10;;
75537;SDS011;64121;48.666;8.114;2023-02-28T05:46:22;7.90;;;5.15;;
75537;SDS011;64121;48.666;8.114;2023-02-28T05:48:48;7.00;;;4.22;;
75537;SDS011;64121;48.666;8.114;2023-02-28T05:51:14;7.38;;;4.97;;
75537;SDS011;64121;48.666;8.114;2023-02-28T05:53:41;8.23;;;4.05;;
75537;SDS011;64121;48.666;8.114;2023-02-28T05:56:06;6.82;;;4.65;;
75537;SDS011;64121;48.666;8.114;2023-02-28T05:58:31;7.07;;;4.80;;
75537;SDS011;64121;48.666;8.114;2023-02-28T06:00:57;7.93;;;5.07;;
75537;SDS011;64121;48.666;8.114;2023-02-28T06:03:23;8.30;;;5.13;;
75537;SDS011;64121;48.666;8.114;2023-02-28T06:05:49;9.82;;;4.93;;
75537;SDS011;64121;48.666;8.114;2023-02-28T06:08:14;8.07;;;5.07;;
75537;SDS011;64121;48.666;8.114;2023-02-28T06:10:41;8.10;;;4.65;;
75537;SDS011;64121;48.666;8.114;2023-02-28T06:13:06;8.23;;;5.03;;
75537;SDS011;64121;48.666;8.114;2023-02-28T06:15:31;7.55;;;5.75;;
75537;SDS011;64121;48.666;8.114;2023-02-28T06:17:57;6.47;;;4.78;;
75537;SDS011;64121;48.666;8.114;2023-02-28T06:20:23;7.70;;;5.80;;
75537;SDS011;64121;48.666;8.114;2023-02-28T06:22:50;8.68;;;5.60;;
75537;SDS011;64121;48.666;8.114;2023-02-28T06:25:15;7.70;;;4.95;;
75537;SDS011;64121;48.666;8.114;2023-02-28T06:27:42;8.52;;;4.88;;
75537;SDS011;64121;48.666;8.114;2023-02-28T06:30:09;9.88;;;5.15;;
75537;SDS011;64121;48.666;8.114;2023-02-28T06:32:35;7.20;;;5.13;;
75537;SDS011;64121;48.666;8.114;2023-02-28T06:35:00;7.65;;;5.20;;
75537;SDS011;64121;48.666;8.114;2023-02-28T06:37:26;6.43;;;4.55;;
75537;SDS011;64121;48.666;8.114;2023-02-28T06:39:51;7.45;;;5.20;;
75537;SDS011;64121;48.666;8.114;2023-02-28T06:42:16;7.32;;;4.18;;
75537;SDS011;64121;48.666;8.114;2023-02-28T06:44:43;7.80;;;5.00;;
75537;SDS011;64121;48.666;8.114;2023-02-28T06:47:08;7.47;;;4.63;;
75537;SDS011;64121;48.666;8.114;2023-02-28T06:49:34;8.75;;;4.90;;
75537;SDS011;64121;48.666;8.114;2023-02-28T06:52:00;10.68;;;5.82;;
75537;SDS011;64121;48.666;8.114;2023-02-28T06:54:26;9.88;;;6.03;;
75537;SDS011;64121;48.666;8.114;2023-02-28T06:56:51;7.18;;;4.75;;
75537;SDS011;64121;48.666;8.114;2023-02-28T06:59:17;9.57;;;5.22;;
75537;SDS011;64121;48.666;8.114;2023-02-28T07:01:43;8.02;;;5.00;;
75537;SDS011;64121;48.666;8.114;2023-02-28T07:04:09;7.28;;;4.75;;
75537;SDS011;64121;48.666;8.114;2023-02-28T07:06:34;8.60;;;5.43;;
75537;SDS011;64121;48.666;8.114;2023-02-28T07:08:59;8.63;;;4.90;;
75537;SDS011;64121;48.666;8.114;2023-02-28T07:11:26;9.52;;;4.63;;
75537;SDS011;64121;48.666;8.114;2023-02-28T07:13:52;10.57;;;5.50;;
75537;SDS011;64121;48.666;8.114;2023-02-28T07:16:18;7.93;;;5.65;;
75537;SDS011;64121;48.666;8.114;2023-02-28T07:18:45;8.82;;;5.10;;
75537;SDS011;64121;48.666;8.114;2023-02-28T07:21:10;9.85;;;5.53;;
75537;SDS011;64121;48.666;8.114;2023-02-28T07:23:36;7.35;;;5.55;;
75537;SDS011;64121;48.666;8.114;2023-02-28T07:26:03;6.90;;;4.70;;
75537;SDS011;64121;48.666;8.114;2023-02-28T07:28:29;6.90;;;4.72;;
75537;SDS011;64121;48.666;8.114;2023-02-28T07:30:55;7.30;;;4.80;;
75537;SDS011;64121;48.666;8.114;2023-02-28T07:33:20;10.70;;;5.70;;
75537;SDS011;64121;48.666;8.114;2023-02-28T07:35:47;7.97;;;5.20;;
75537;SDS011;64121;48.666;8.114;2023-02-28T07:38:12;8.43;;;5.07;;
75537;SDS011;64121;48.666;8.114;2023-02-28T07:40:38;7.70;;;4.90;;
75537;SDS011;64121;48.666;8.114;2023-02-28T07:43:03;7.75;;;5.03;;
75537;SDS011;64121;48.666;8.114;2023-02-28T07:45:28;8.77;;;5.28;;
75537;SDS011;64121;48.666;8.114;2023-02-28T07:47:54;10.52;;;5.97;;
75537;SDS011;64121;48.666;8.114;2023-02-28T07:50:20;11.30;;;6.05;;
75537;SDS011;64121;48.666;8.114;2023-02-28T07:52:47;9.02;;;5.70;;
75537;SDS011;64121;48.666;8.114;2023-02-28T07:55:13;8.50;;;5.40;;
75537;SDS011;64121;48.666;8.114;2023-02-28T07:57:39;9.98;;;6.00;;
75537;SDS011;64121;48.666;8.114;2023-02-28T08:00:05;7.32;;;5.72;;
75537;SDS011;64121;48.666;8.114;2023-02-28T08:02:33;7.88;;;5.00;;
75537;SDS011;64121;48.666;8.114;2023-02-28T08:04:59;9.10;;;5.03;;
75537;SDS011;64121;48.666;8.114;2023-02-28T08:07:24;10.30;;;5.38;;
75537;SDS011;64121;48.666;8.114;2023-02-28T08:09:51;7.88;;;5.03;;
75537;SDS011;64121;48.666;8.114;2023-02-28T08:12:16;9.20;;;6.38;;
75537;SDS011;64121;48.666;8.114;2023-02-28T08:14:42;9.48;;;5.65;;
75537;SDS011;64121;48.666;8.114;2023-02-28T08:17:08;8.27;;;5.95;;
75537;SDS011;64121;48.666;8.114;2023-02-28T08:19:34;10.30;;;5.90;;
75537;SDS011;64121;48.666;8.114;2023-02-28T08:21:59;8.65;;;5.38;;
75537;SDS011;64121;48.666;8.114;2023-02-28T08:24:24;7.43;;;5.03;;
75537;SDS011;64121;48.666;8.114;2023-02-28T08:26:51;9.98;;;6.03;;
75537;SDS011;64121;48.666;8.114;2023-02-28T08:29:16;7.68;;;5.53;;
75537;SDS011;64121;48.666;8.114;2023-02-28T08:31:43;9.63;;;6.85;;
75537;SDS011;64121;48.666;8.114;2023-02-28T08:34:10;9.95;;;5.60;;
75537;SDS011;64121;48.666;8.114;2023-02-28T08:36:36;8.48;;;5.18;;
75537;SDS011;64121;48.666;8.114;2023-02-28T08:39:02;10.00;;;6.18;;
75537;SDS011;64121;48.666;8.114;2023-02-28T08:41:28;8.82;;;5.95;;
75537;SDS011;64121;48.666;8.114;2023-02-28T08:43:55;7.18;;;5.30;;
75537;SDS011;64121;48.666;8.114;2023-02-28T08:46:21;8.70;;;5.20;;
75537;SDS011;64121;48.666;8.114;2023-02-28T08:48:46;9.88;;;5.22;;
75537;SDS011;64121;48.666;8.114;2023-02-28T08:51:12;9.05;;;5.82;;
75537;SDS011;64121;48.666;8.114;2023-02-28T08:53:39;8.73;;;5.80;;
75537;SDS011;64121;48.666;8.114;2023-02-28T08:56:06;9.65;;;5.43;;
75537;SDS011;64121;48.666;8.114;2023-02-28T08:58:33;10.10;;;5.28;;
75537;SDS011;64121;48.666;8.114;2023-02-28T09:01:00;8.32;;;5.90;;
75537;SDS011;64121;48.666;8.114;2023-02-28T09:03:26;8.35;;;4.28;;
75537;SDS011;64121;48.666;8.114;2023-02-28T09:05:52;10.30;;;6.10;;
75537;SDS011;64121;48.666;8.114;2023-02-28T09:08:18;9.93;;;5.35;;
75537;SDS011;64121;48.666;8.114;2023-02-28T09:10:43;10.20;;;5.30;;
75537;SDS011;64121;48.666;8.114;2023-02-28T09:13:09;8.05;;;5.30;;
75537;SDS011;64121;48.666;8.114;2023-02-28T09:15:34;9.18;;;5.13;;
75537;SDS011;64121;48.666;8.114;2023-02-28T09:18:03;8.55;;;5.43;;
75537;SDS011;64121;48.666;8.114;2023-02-28T09:20:28;10.80;;;5.95;;
75537;SDS011;64121;48.666;8.114;2023-02-28T09:22:54;7.85;;;5.03;;
75537;SDS011;64121;48.666;8.114;2023-02-28T09:25:19;8.57;;;5.32;;
75537;SDS011;64121;48.666;8.114;2023-02-28T09:27:45;9.15;;;5.38;;
75537;SDS011;64121;48.666;8.114;2023-02-28T09:30:10;9.70;;;6.15;;
75537;SDS011;64121;48.666;8.114;2023-02-28T09:32:37;8.35;;;5.63;;
75537;SDS011;64121;48.666;8.114;2023-02-28T09:35:04;11.32;;;6.45;;
75537;SDS011;64121;48.666;8.114;2023-02-28T09:37:30;9.55;;;5.85;;
75537;SDS011;64121;48.666;8.114;2023-02-28T09:39:55;7.57;;;5.35;;
75537;SDS011;64121;48.666;8.114;2023-02-28T09:42:30;8.73;;;5.85;;
75537;SDS011;64121;48.666;8.114;2023-02-28T09:44:58;12.88;;;7.57;;
75537;SDS011;64121;48.666;8.114;2023-02-28T09:47:26;10.32;;;5.75;;
75537;SDS011;64121;48.666;8.114;2023-02-28T09:49:56;8.55;;;5.70;;
75537;SDS011;64121;48.666;8.114;2023-02-28T09:52:28;9.82;;;6.78;;
75537;SDS011;64121;48.666;8.114;2023-02-28T09:54:54;9.23;;;5.50;;
75537;SDS011;64121;48.666;8.114;2023-02-28T09:57:21;12.40;;;7.15;;
75537;SDS011;64121;48.666;8.114;2023-02-28T10:00:01;12.70;;;8.10;;
75537;SDS011;64121;48.666;8.114;2023-02-28T10:02:46;10.90;;;7.55;;
75537;SDS011;64121;48.666;8.114;2023-02-28T10:05:20;10.05;;;7.00;;
75537;SDS011;64121;48.666;8.114;2023-02-28T10:07:53;11.07;;;6.53;;
75537;SDS011;64121;48.666;8.114;2023-02-28T10:10:26;14.35;;;8.50;;
75537;SDS011;64121;48.666;8.114;2023-02-28T10:12:55;9.90;;;6.97;;
75537;SDS011;64121;48.666;8.114;2023-02-28T10:15:24;10.70;;;6.53;;
75537;SDS011;64121;48.666;8.114;2023-02-28T10:17:53;8.98;;;6.00;;
75537;SDS011;64121;48.666;8.114;2023-02-28T10:20:22;13.27;;;7.65;;
75537;SDS011;64121;48.666;8.114;2023-02-28T10:22:52;11.98;;;7.05;;
75537;SDS011;64121;48.666;8.114;2023-02-28T10:25:23;14.82;;;7.95;;
75537;SDS011;64121;48.666;8.114;2023-02-28T10:27:50;8.60;;;5.63;;
75537;SDS011;64121;48.666;8.114;2023-02-28T10:30:18;10.25;;;7.85;;
75537;SDS011;64121;48.666;8.114;2023-02-28T10:32:47;11.13;;;6.93;;
75537;SDS011;64121;48.666;8.114;2023-02-28T10:35:15;10.07;;;6.72;;
75537;SDS011;64121;48.666;8.114;2023-02-28T10:37:44;10.45;;;6.38;;
75537;SDS011;64121;48.666;8.114;2023-02-28T10:40:28;11.10;;;6.32;;
75537;SDS011;64121;48.666;8.114;2023-02-28T10:42:58;10.65;;;6.03;;
75537;SDS011;64121;48.666;8.114;2023-02-28T10:45:25;10.43;;;6.43;;
75537;SDS011;64121;48.666;8.114;2023-02-28T10:47:52;10.20;;;6.35;;
75537;SDS011;64121;48.666;8.114;2023-02-28T10:50:26;11.63;;;7.05;;
75537;SDS011;64121;48.666;8.114;2023-02-28T10:52:54;8.77;;;6.05;;
75537;SDS011;64121;48.666;8.114;2023-02-28T10:55:22;12.57;;;7.72;;
75537;SDS011;64121;48.666;8.114;2023-02-28T10:57:49;11.13;;;6.70;;
75537;SDS011;64121;48.666;8.114;2023-02-28T11:00:15;10.13;;;6.43;;
75537;SDS011;64121;48.666;8.114;2023-02-28T11:02:42;9.48;;;6.72;;
75537;SDS011;64121;48.666;8.114;2023-02-28T11:05:24;10.02;;;6.50;;
75537;SDS011;64121;48.666;8.114;2023-02-28T11:07:51;10.18;;;6.00;;
75537;SDS011;64121;48.666;8.114;2023-02-28T11:10:18;10.20;;;6.53;;
75537;SDS011;64121;48.666;8.114;2023-02-28T11:12:47;10.07;;;6.65;;
75537;SDS011;64121;48.666;8.114;2023-02-28T11:15:18;12.13;;;6.43;;
75537;SDS011;64121;48.666;8.114;2023-02-28T11:17:52;10.15;;;7.32;;
75537;SDS011;64121;48.666;8.114;2023-02-28T11:20:20;10.35;;;6.68;;
75537;SDS011;64121;48.666;8.114;2023-02-28T11:22:48;11.52;;;5.75;;
75537;SDS011;64121;48.666;8.114;2023-02-28T11:25:20;11.23;;;6.70;;
75537;SDS011;64121;48.666;8.114;2023-02-28T11:27:49;10.02;;;6.43;;
75537;SDS011;64121;48.666;8.114;2023-02-28T11:30:23;10.07;;;6.65;;
75537;SDS011;64121;48.666;8.114;2023-02-28T11:32:51;10.57;;;6.30;;
75537;SDS011;64121;48.666;8.114;2023-02-28T11:35:17;8.55;;;6.22;;
75537;SDS011;64121;48.666;8.114;2023-02-28T11:37:48;11.90;;;7.32;;
75537;SDS011;64121;48.666;8.114;2023-02-28T11:40:13;12.25;;;7.18;;
75537;SDS011;64121;48.666;8.114;2023-02-28T11:42:45;10.27;;;6.47;;
75537;SDS011;64121;48.666;8.114;2023-02-28T11:45:23;11.30;;;6.10;;
75537;SDS011;64121;48.666;8.114;2023-02-28T11:48:01;11.55;;;6.15;;
75537;SDS011;64121;48.666;8.114;2023-02-28T11:50:38;8.88;;;6.20;;
75537;SDS011;64121;48.666;8.114;2023-02-28T11:53:14;9.85;;;6.78;;
75537;SDS011;64121;48.666;8.114;2023-02-28T11:55:47;9.07;;;6.57;;
75537;SDS011;64121;48.666;8.114;2023-02-28T12:01:22;9.65;;;6.32;;
75537;SDS011;64121;48.666;8.114;2023-02-28T12:03:59;11.88;;;7.28;;
75537;SDS011;64121;48.666;8.114;2023-02-28T12:06:36;8.73;;;6.28;;
75537;SDS011;64121;48.666;8.114;2023-02-28T12:09:13;10.75;;;6.97;;
75537;SDS011;64121;48.666;8.114;2023-02-28T12:11:53;12.40;;;7.82;;
75537;SDS011;64121;48.666;8.114;2023-02-28T12:14:39;10.18;;;6.53;;
75537;SDS011;64121;48.666;8.114;2023-02-28T12:17:22;9.43;;;6.57;;
75537;SDS011;64121;48.666;8.114;2023-02-28T12:19:59;9.18;;;7.15;;
75537;SDS011;64121;48.666;8.114;2023-02-28T12:22:32;8.77;;;6.22;;
75537;SDS011;64121;48.666;8.114;2023-02-28T12:25:24;10.25;;;6.28;;
75537;SDS011;64121;48.666;8.114;2023-02-28T12:28:09;10.23;;;7.30;;
75537;SDS011;64121;48.666;8.114;2023-02-28T12:30:38;9.77;;;6.45;;
75537;SDS011;64121;48.666;8.114;2023-02-28T12:33:09;9.95;;;6.75;;
75537;SDS011;64121;48.666;8.114;2023-02-28T12:35:41;10.05;;;6.72;;
75537;SDS011;64121;48.666;8.114;2023-02-28T12:38:12;11.90;;;6.93;;
75537;SDS011;64121;48.666;8.114;2023-02-28T12:40:43;10.00;;;6.15;;
75537;SDS011;64121;48.666;8.114;2023-02-28T12:43:12;11.65;;;6.72;;
75537;SDS011;64121;48.666;8.114;2023-02-28T12:45:41;8.90;;;6.68;;
75537;SDS011;64121;48.666;8.114;2023-02-28T12:48:17;9.00;;;6.15;;
75537;SDS011;64121;48.666;8.114;2023-02-28T12:50:49;10.02;;;6.45;;
75537;SDS011;64121;48.666;8.114;2023-02-28T12:53:17;10.00;;;6.75;;
75537;SDS011;64121;48.666;8.114;2023-02-28T12:55:52;9.13;;;6.53;;
75537;SDS011;64121;48.666;8.114;2023-02-28T12:58:29;9.50;;;6.90;;
75537;SDS011;64121;48.666;8.114;2023-02-28T13:04:07;11.77;;;7.40;;
75537;SDS011;64121;48.666;8.114;2023-02-28T13:06:51;9.70;;;6.50;;
75537;SDS011;64121;48.666;8.114;2023-02-28T13:09:30;8.98;;;6.25;;
75537;SDS011;64121;48.666;8.114;2023-02-28T13:11:55;9.57;;;7.50;;
75537;SDS011;64121;48.666;8.114;2023-02-28T13:14:24;9.13;;;6.20;;
75537;SDS011;64121;48.666;8.114;2023-02-28T13:16:57;9.32;;;6.70;;
75537;SDS011;64121;48.666;8.114;2023-02-28T13:19:27;9.63;;;6.90;;
75537;SDS011;64121;48.666;8.114;2023-02-28T13:21:55;9.45;;;6.38;;
75537;SDS011;64121;48.666;8.114;2023-02-28T13:27:19;8.80;;;6.28;;
75537;SDS011;64121;48.666;8.114;2023-02-28T13:29:56;8.88;;;6.57;;
75537;SDS011;64121;48.666;8.114;2023-02-28T13:32:30;8.90;;;6.40;;
75537;SDS011;64121;48.666;8.114;2023-02-28T13:38:17;10.02;;;6.93;;
75537;SDS011;64121;48.666;8.114;2023-02-28T13:40:48;10.88;;;6.95;;
75537;SDS011;64121;48.666;8.114;2023-02-28T13:43:16;9.75;;;6.93;;
75537;SDS011;64121;48.666;8.114;2023-02-28T13:45:44;10.27;;;6.78;;
75537;SDS011;64121;48.666;8.114;2023-02-28T13:48:33;10.63;;;6.35;;
75537;SDS011;64121;48.666;8.114;2023-02-28T13:50:58;9.05;;;5.97;;
75537;SDS011;64121;48.666;8.114;2023-02-28T13:56:22;10.75;;;6.68;;
75537;SDS011;64121;48.666;8.114;2023-02-28T13:58:58;9.63;;;6.18;;
75537;SDS011;64121;48.666;8.114;2023-02-28T14:01:43;8.55;;;6.28;;
75537;SDS011;64121;48.666;8.114;2023-02-28T14:04:27;10.73;;;6.60;;
75537;SDS011;64121;48.666;8.114;2023-02-28T14:07:18;9.35;;;6.45;;
75537;SDS011;64121;48.666;8.114;2023-02-28T14:09:48;10.70;;;6.72;;
75537;SDS011;64121;48.666;8.114;2023-02-28T14:15:34;8.48;;;6.25;;
75537;SDS011;64121;48.666;8.114;2023-02-28T14:18:14;9.60;;;6.05;;
75537;SDS011;64121;48.666;8.114;2023-02-28T14:20:44;9.48;;;7.25;;
75537;SDS011;64121;48.666;8.114;2023-02-28T14:23:12;10.18;;;6.57;;
75537;SDS011;64121;48.666;8.114;2023-02-28T14:25:52;9.80;;;6.88;;
75537;SDS011;64121;48.666;8.114;2023-02-28T14:28:27;9.20;;;6.63;;
75537;SDS011;64121;48.666;8.114;2023-02-28T14:31:08;9.30;;;6.57;;
75537;SDS011;64121;48.666;8.114;2023-02-28T14:33:41;11.18;;;7.13;;
75537;SDS011;64121;48.666;8.114;2023-02-28T14:36:16;10.32;;;6.85;;
75537;SDS011;64121;48.666;8.114;2023-02-28T14:38:45;9.65;;;6.38;;
75537;SDS011;64121;48.666;8.114;2023-02-28T14:41:14;9.38;;;6.72;;
75537;SDS011;64121;48.666;8.114;2023-02-28T14:43:51;8.38;;;6.25;;
75537;SDS011;64121;48.666;8.114;2023-02-28T14:46:18;10.85;;;6.93;;
75537;SDS011;64121;48.666;8.114;2023-02-28T14:48:45;11.98;;;6.82;;
75537;SDS011;64121;48.666;8.114;2023-02-28T14:51:11;11.50;;;7.18;;
75537;SDS011;64121;48.666;8.114;2023-02-28T14:53:44;7.90;;;6.32;;
75537;SDS011;64121;48.666;8.114;2023-02-28T14:56:18;8.98;;;6.45;;
75537;SDS011;64121;48.666;8.114;2023-02-28T14:58:50;10.20;;;6.65;;
75537;SDS011;64121;48.666;8.114;2023-02-28T15:01:18;9.20;;;6.90;;
75537;SDS011;64121;48.666;8.114;2023-02-28T15:03:45;10.13;;;6.95;;
75537;SDS011;64121;48.666;8.114;2023-02-28T15:06:13;9.30;;;7.15;;
75537;SDS011;64121;48.666;8.114;2023-02-28T15:08:40;10.43;;;8.20;;
75537;SDS011;64121;48.666;8.114;2023-02-28T15:11:07;10.90;;;7.00;;
75537;SDS011;64121;48.666;8.114;2023-02-28T15:13:37;9.18;;;7.45;;
75537;SDS011;64121;48.666;8.114;2023-02-28T15:16:05;9.88;;;7.70;;